createdAt,value
2022-08-26T00:04:19.727Z,99777.41
2022-08-26T00:09:25.289Z,99773.56
2022-08-26T00:14:31.193Z,99771.84
2022-08-26T00:19:34.910Z,99773.38
2022-08-26T00:24:38.031Z,99778.69
2022-08-26T00:29:41.055Z,99780.28
2022-08-26T00:34:44.026Z,99766.69
2022-08-26T00:39:47.576Z,99775.25
2022-08-26T00:44:51.009Z,99767.41
2022-08-26T00:49:55.322Z,99770.28
2022-08-26T00:55:23.909Z,99765.38
2022-08-26T01:00:32.111Z,99768.00
2022-08-26T01:05:35.148Z,99768.72
2022-08-26T01:10:38.212Z,99767.75
2022-08-26T01:15:49.284Z,99766.59
2022-08-26T01:21:29.545Z,99762.53
2022-08-26T01:26:41.562Z,99752.19
2022-08-26T01:31:49.700Z,99758.09
2022-08-26T01:37:05.459Z,99763.63
2022-08-26T01:42:12.442Z,99757.09
2022-08-26T01:47:18.111Z,99749.94
2022-08-26T01:52:28.676Z,99752.56
2022-08-26T01:57:31.896Z,99757.13
2022-08-26T02:02:34.751Z,99756.22
2022-08-26T02:07:40.514Z,99752.13
2022-08-26T02:12:43.315Z,99757.16
2022-08-26T02:17:47.951Z,99751.09
2022-08-26T02:22:56.207Z,99759.09
2022-08-26T02:28:00.666Z,99752.53
2022-08-26T02:33:03.981Z,99747.28
2022-08-26T02:38:11.174Z,99750.72
2022-08-26T02:43:14.894Z,99756.56
2022-08-26T02:48:21.245Z,99756.44
2022-08-26T02:53:25.410Z,99751.50
2022-08-26T02:58:28.497Z,99743.88
2022-08-26T03:03:32.057Z,99747.66
2022-08-26T03:08:35.526Z,99744.38
2022-08-26T03:13:39.514Z,99745.09
2022-08-26T03:18:43.388Z,99736.63
2022-08-26T03:23:58.643Z,99739.00
2022-08-26T03:29:20.207Z,99733.88
2022-08-26T03:34:23.401Z,99739.47
2022-08-26T03:39:26.519Z,99732.69
2022-08-26T03:44:30.058Z,99736.66
2022-08-26T03:49:34.919Z,99741.72
2022-08-26T03:54:38.765Z,99741.97
2022-08-26T03:59:41.552Z,99735.63
2022-08-26T04:04:44.385Z,99738.78
2022-08-26T04:09:47.735Z,99733.63
2022-08-26T04:14:52.644Z,99737.16
2022-08-26T04:19:56.725Z,99737.72
2022-08-26T04:25:00.140Z,99741.84
2022-08-26T04:30:04.868Z,99732.47
2022-08-26T04:35:08.383Z,99740.28
2022-08-26T04:40:12.720Z,99733.03
2022-08-26T04:45:16.321Z,99736.44
2022-08-26T04:50:20.815Z,99732.31
2022-08-26T04:55:38.115Z,99736.75
2022-08-26T05:00:45.871Z,99741.91
2022-08-26T05:05:51.251Z,99734.03
2022-08-26T05:10:56.041Z,99732.13
2022-08-26T05:16:05.624Z,99742.63
2022-08-26T05:21:09.336Z,99735.31
2022-08-26T05:26:12.268Z,99736.06
2022-08-26T05:31:31.790Z,99743.28
2022-08-26T05:36:36.067Z,99737.38
2022-08-26T05:41:42.979Z,99746.53
2022-08-26T05:46:47.699Z,99733.31
2022-08-26T05:51:51.495Z,99736.81
2022-08-26T05:56:54.431Z,99747.34
2022-08-26T06:01:57.388Z,99750.88
2022-08-26T06:07:01.061Z,99749.78
2022-08-26T06:12:05.110Z,99747.03
2022-08-26T06:17:09.530Z,99736.94
2022-08-26T06:22:32.564Z,99753.97
2022-08-26T06:27:36.803Z,99749.41
2022-08-26T06:32:39.620Z,99748.50
2022-08-26T06:37:42.905Z,99749.53
2022-08-26T06:42:45.956Z,99747.25
2022-08-26T06:47:49.510Z,99756.59
2022-08-26T06:52:54.925Z,99751.28
2022-08-26T06:57:59.925Z,99752.97
2022-08-26T07:03:04.765Z,99752.53
2022-08-26T07:08:07.975Z,99749.38
2022-08-26T07:13:12.421Z,99755.66
2022-08-26T07:18:17.213Z,99750.56
2022-08-26T07:23:20.438Z,99745.16
2022-08-26T07:28:25.968Z,99751.19
2022-08-26T07:33:29.891Z,99743.31
2022-08-26T07:38:34.550Z,99739.25
2022-08-26T07:43:38.029Z,99734.63
2022-08-26T07:48:41.398Z,99735.47
2022-08-26T07:53:52.428Z,99732.28
2022-08-26T07:58:55.849Z,99736.31
2022-08-26T08:04:00.509Z,99732.22
2022-08-26T08:09:06.154Z,99732.75
2022-08-26T08:14:11.832Z,99725.38
2022-08-26T08:19:15.593Z,99722.03
2022-08-26T08:24:18.543Z,99717.06
2022-08-26T08:29:21.438Z,99722.66
2022-08-26T08:34:27.223Z,99710.88
2022-08-26T08:39:32.944Z,99705.31
2022-08-26T08:44:44.344Z,99709.56
2022-08-26T08:50:04.878Z,99698.00
2022-08-26T08:55:10.360Z,99697.91
2022-08-26T09:00:18.894Z,99704.31
2022-08-26T09:05:34.905Z,99691.56
2022-08-26T09:10:49.923Z,99692.94
2022-08-26T09:16:14.305Z,99689.28
2022-08-26T09:21:20.209Z,99677.16
2022-08-26T09:26:30.887Z,99671.75
2022-08-26T09:31:37.423Z,99666.16
2022-08-26T09:36:45.346Z,99667.53
2022-08-26T09:42:24.637Z,99659.38
2022-08-26T09:47:47.963Z,99667.59
2022-08-26T09:53:18.715Z,99654.78
2022-08-26T09:58:37.849Z,99656.34
2022-08-26T10:03:42.119Z,99655.06
2022-08-26T10:08:52.525Z,99652.81
2022-08-26T10:14:28.125Z,99653.75
2022-08-26T10:20:06.488Z,99643.69
2022-08-26T10:25:50.138Z,99637.19
2022-08-26T10:31:38.467Z,99633.22
2022-08-26T10:37:14.093Z,99630.75
2022-08-26T10:42:37.601Z,99621.56
2022-08-26T10:47:43.776Z,99621.72
2022-08-26T10:53:15.448Z,99614.41
2022-08-26T10:58:44.726Z,99604.19
2022-08-26T11:04:19.466Z,99604.78
2022-08-26T11:09:47.084Z,99598.59
2022-08-26T11:14:58.741Z,99590.56
2022-08-26T11:20:09.224Z,99591.09
2022-08-26T11:25:29.281Z,99590.47
2022-08-26T11:30:41.004Z,99581.63
2022-08-26T11:35:47.630Z,99579.53
2022-08-26T11:41:11.531Z,99566.97
2022-08-26T11:46:26.852Z,99561.78
2022-08-26T11:51:31.586Z,99562.44
2022-08-26T11:56:36.817Z,99551.91
2022-08-26T12:01:46.068Z,99546.25
2022-08-26T12:06:51.697Z,99539.13
2022-08-26T12:12:27.069Z,99538.28
2022-08-26T12:17:30.056Z,99538.50
2022-08-26T12:22:36.118Z,99536.38
2022-08-26T12:27:45.521Z,99532.75
2022-08-26T12:33:22.238Z,99529.56
2022-08-26T12:38:28.988Z,99519.22
2022-08-26T12:43:43.491Z,99519.75
2022-08-26T12:48:49.698Z,99505.97
2022-08-26T12:53:54.053Z,99503.72
2022-08-26T12:59:26.682Z,99494.44
2022-08-26T13:04:43.532Z,99507.19
2022-08-26T13:09:46.366Z,99492.00
2022-08-26T13:14:49.930Z,99486.00
2022-08-26T13:19:52.893Z,99484.34
2022-08-26T13:24:57.014Z,99481.28
2022-08-26T13:30:00.422Z,99469.53
2022-08-26T13:35:05.951Z,99477.38
2022-08-26T13:40:10.020Z,99466.72
2022-08-26T13:45:13.098Z,99462.22
2022-08-26T13:50:16.097Z,99457.16
2022-08-26T13:55:18.980Z,99457.34
2022-08-26T14:00:23.390Z,99460.47
2022-08-26T14:05:27.793Z,99453.69
2022-08-26T14:10:30.718Z,99461.13
2022-08-26T14:15:36.013Z,99462.28
2022-08-26T14:20:39.493Z,99458.19
2022-08-26T14:25:42.734Z,99468.22
2022-08-26T14:30:52.249Z,99466.25
2022-08-26T14:36:15.842Z,99452.50
2022-08-26T14:41:20.159Z,99457.25
2022-08-26T14:46:22.958Z,99455.88
2022-08-26T14:51:26.232Z,99459.06
2022-08-26T14:56:31.333Z,99451.28
2022-08-26T15:01:34.310Z,99446.09
2022-08-26T15:06:38.181Z,99448.91
2022-08-26T15:11:41.254Z,99438.09
2022-08-26T15:16:44.345Z,99442.06
2022-08-26T15:21:47.865Z,99430.53
2022-08-26T15:26:53.385Z,99431.06
2022-08-26T15:31:57.420Z,99431.94
2022-08-26T15:37:00.329Z,99433.00
2022-08-26T15:42:04.684Z,99428.66
2022-08-26T15:47:08.071Z,99425.38
2022-08-26T15:52:11.120Z,99419.88
2022-08-26T15:57:16.451Z,99414.22
2022-08-26T16:02:22.041Z,99415.06
2022-08-26T16:07:25.049Z,99410.41
2022-08-26T16:12:28.542Z,99407.22
2022-08-26T16:17:31.438Z,99411.63
2022-08-26T16:22:34.324Z,99414.50
2022-08-26T16:27:37.294Z,99411.91
2022-08-26T16:32:40.255Z,99407.97
2022-08-26T16:37:43.195Z,99411.13
2022-08-26T16:42:46.156Z,99417.44
2022-08-26T16:47:50.058Z,99417.81
2022-08-26T16:52:55.968Z,99426.28
2022-08-26T16:57:59.871Z,99426.56
2022-08-26T17:03:02.949Z,99431.53
2022-08-26T17:08:06.330Z,99441.63
2022-08-26T17:13:09.483Z,99432.84
2022-08-26T17:18:12.593Z,99433.06
2022-08-26T17:23:16.569Z,99435.19
2022-08-26T17:28:21.591Z,99432.63
2022-08-26T17:33:24.906Z,99433.41
2022-08-26T17:38:29.251Z,99435.69
2022-08-26T17:43:32.132Z,99430.88
2022-08-26T17:48:37.655Z,99427.91
2022-08-26T17:53:41.898Z,99440.50
2022-08-26T17:58:51.351Z,99439.72
2022-08-26T18:04:00.158Z,99437.22
2022-08-26T18:09:03.971Z,99434.72
2022-08-26T18:14:06.762Z,99438.19
2022-08-26T18:19:09.623Z,99437.00
2022-08-26T18:24:14.257Z,99437.66
2022-08-26T18:29:19.473Z,99448.16
2022-08-26T18:34:22.945Z,99442.09
2022-08-26T18:39:27.894Z,99452.78
2022-08-26T18:44:30.721Z,99463.19
2022-08-26T18:49:44.342Z,99471.41
2022-08-26T18:54:47.177Z,99470.66
2022-08-26T18:59:53.714Z,99479.09
2022-08-26T19:04:57.068Z,99474.78
2022-08-26T19:09:59.881Z,99476.16
2022-08-26T19:15:05.891Z,99479.44
2022-08-26T19:20:09.939Z,99475.09
2022-08-26T19:25:13.403Z,99476.72
2022-08-26T19:30:16.398Z,99480.50
2022-08-26T19:35:19.371Z,99486.19
2022-08-26T19:40:22.494Z,99478.84
2022-08-26T19:45:25.601Z,99486.16
2022-08-26T19:50:33.748Z,99486.69
2022-08-26T19:55:36.690Z,99489.41
2022-08-26T20:00:42.190Z,99498.38
2022-08-26T20:05:44.989Z,99501.06
2022-08-26T20:10:50.494Z,99500.25
2022-08-26T20:15:53.444Z,99507.28
2022-08-26T20:21:15.835Z,99504.00
2022-08-26T20:26:19.144Z,99508.31
2022-08-26T20:31:22.599Z,99515.34
2022-08-26T20:36:27.955Z,99517.97
2022-08-26T20:41:31.421Z,99517.38
2022-08-26T20:46:37.270Z,99524.38
2022-08-26T20:51:43.155Z,99525.63
2022-08-26T20:56:46.746Z,99533.97
2022-08-26T21:01:52.073Z,99540.41
2022-08-26T21:06:55.758Z,99543.34
2022-08-26T21:11:59.483Z,99544.63
2022-08-26T21:17:02.635Z,99547.53
2022-08-26T21:22:06.183Z,99551.81
2022-08-26T21:27:09.160Z,99541.78
2022-08-26T21:32:12.424Z,99539.84
2022-08-26T21:37:18.651Z,99546.06
2022-08-26T21:42:22.030Z,99538.47
2022-08-26T21:47:25.020Z,99543.31
2022-08-26T21:52:28.361Z,99543.84
2022-08-26T21:57:33.059Z,99542.47
2022-08-26T22:02:37.006Z,99541.09
2022-08-26T22:07:40.013Z,99541.84
2022-08-26T22:12:42.923Z,99541.25
2022-08-26T22:17:45.813Z,99542.84
2022-08-26T22:22:48.619Z,99543.84
2022-08-26T22:27:51.983Z,99539.22
2022-08-26T22:32:54.934Z,99532.94
2022-08-26T22:37:59.055Z,99530.22
2022-08-26T22:43:04.427Z,99529.56
2022-08-26T22:48:07.463Z,99524.97
2022-08-26T22:53:10.502Z,99522.44
2022-08-26T22:58:17.089Z,99522.59
2022-08-26T23:03:21.175Z,99516.28
2022-08-26T23:08:26.374Z,99524.59
2022-08-26T23:13:29.284Z,99517.72
2022-08-26T23:18:32.728Z,99517.63
2022-08-26T23:23:35.753Z,99512.66
2022-08-26T23:28:40.325Z,99510.94
2022-08-26T23:34:01.551Z,99506.28
2022-08-26T23:39:06.097Z,99510.56
2022-08-26T23:44:09.002Z,99501.59
2022-08-26T23:49:11.869Z,99506.66
2022-08-26T23:54:14.942Z,99509.06
2022-08-26T23:59:17.777Z,99498.16
